sensor_id;sensor_type;location;lat;lon;timestamp;temperature;humidity
57026;DHT22;43961;52.940;6.834;2023-04-25T00:01:11;7.20;99.90
57026;DHT22;43961;52.940;6.834;2023-04-25T00:03:39;7.10;99.90
57026;DHT22;43961;52.940;6.834;2023-04-25T00:06:06;7.10;99.90
57026;DHT22;43961;52.940;6.834;2023-04-25T00:08:32;7.10;99.90
57026;DHT22;43961;52.940;6.834;2023-04-25T00:10:58;7.10;99.90
57026;DHT22;43961;52.940;6.834;2023-04-25T00:13:24;7.00;99.90
57026;DHT22;43961;52.940;6.834;2023-04-25T00:15:52;7.10;99.90
57026;DHT22;43961;52.940;6.834;2023-04-25T00:18:19;7.10;99.90
57026;DHT22;43961;52.940;6.834;2023-04-25T00:20:45;7.10;99.90
57026;DHT22;43961;52.940;6.834;2023-04-25T00:23:16;7.10;99.90
57026;DHT22;43961;52.940;6.834;2023-04-25T00:25:49;7.10;99.90
57026;DHT22;43961;52.940;6.834;2023-04-25T00:28:15;7.10;99.90
57026;DHT22;43961;52.940;6.834;2023-04-25T00:30:41;7.00;99.90
57026;DHT22;43961;52.940;6.834;2023-04-25T00:33:08;7.00;99.90
57026;DHT22;43961;52.940;6.834;2023-04-25T00:35:34;7.00;99.90
57026;DHT22;43961;52.940;6.834;2023-04-25T00:38:00;7.00;99.90
57026;DHT22;43961;52.940;6.834;2023-04-25T00:40:26;6.90;99.90
57026;DHT22;43961;52.940;6.834;2023-04-25T00:42:52;6.90;99.90
57026;DHT22;43961;52.940;6.834;2023-04-25T00:45:18;6.90;99.90
57026;DHT22;43961;52.940;6.834;2023-04-25T00:47:44;6.80;99.90
57026;DHT22;43961;52.940;6.834;2023-04-25T00:50:10;6.80;99.90
57026;DHT22;43961;52.940;6.834;2023-04-25T00:52:44;6.80;99.90
57026;DHT22;43961;52.940;6.834;2023-04-25T00:55:11;6.80;99.90
57026;DHT22;43961;52.940;6.834;2023-04-25T00:57:37;6.70;99.90
57026;DHT22;43961;52.940;6.834;2023-04-25T01:00:05;6.70;99.90
57026;DHT22;43961;52.940;6.834;2023-04-25T01:02:32;6.70;99.90
57026;DHT22;43961;52.940;6.834;2023-04-25T01:04:58;6.70;99.90
57026;DHT22;43961;52.940;6.834;2023-04-25T01:07:24;6.70;99.90
57026;DHT22;43961;52.940;6.834;2023-04-25T01:09:51;6.70;99.90
57026;DHT22;43961;52.940;6.834;2023-04-25T01:12:17;6.70;99.90
57026;DHT22;43961;52.940;6.834;2023-04-25T01:14:43;6.70;99.90
57026;DHT22;43961;52.940;6.834;2023-04-25T01:17:11;6.70;99.90
57026;DHT22;43961;52.940;6.834;2023-04-25T01:19:37;6.70;99.90
57026;DHT22;43961;52.940;6.834;2023-04-25T01:22:03;6.60;99.90
57026;DHT22;43961;52.940;6.834;2023-04-25T01:24:31;6.60;99.90
57026;DHT22;43961;52.940;6.834;2023-04-25T01:26:58;6.60;99.90
57026;DHT22;43961;52.940;6.834;2023-04-25T01:29:24;6.60;99.90
57026;DHT22;43961;52.940;6.834;2023-04-25T01:31:52;6.60;99.90
57026;DHT22;43961;52.940;6.834;2023-04-25T01:34:18;6.60;99.90
57026;DHT22;43961;52.940;6.834;2023-04-25T01:36:44;6.60;99.90
57026;DHT22;43961;52.940;6.834;2023-04-25T01:39:10;6.60;99.90
57026;DHT22;43961;52.940;6.834;2023-04-25T01:41:36;6.60;99.90
57026;DHT22;43961;52.940;6.834;2023-04-25T01:44:02;6.50;99.90
57026;DHT22;43961;52.940;6.834;2023-04-25T01:46:28;6.50;99.90
57026;DHT22;43961;52.940;6.834;2023-04-25T01:48:54;6.50;99.90
57026;DHT22;43961;52.940;6.834;2023-04-25T01:51:20;6.50;99.90
57026;DHT22;43961;52.940;6.834;2023-04-25T01:53:46;6.40;99.90
57026;DHT22;43961;52.940;6.834;2023-04-25T01:56:12;6.40;99.90
57026;DHT22;43961;52.940;6.834;2023-04-25T01:58:38;6.40;99.90
57026;DHT22;43961;52.940;6.834;2023-04-25T02:01:04;6.30;99.90
57026;DHT22;43961;52.940;6.834;2023-04-25T02:03:31;6.30;99.90
57026;DHT22;43961;52.940;6.834;2023-04-25T02:05:57;6.30;99.90
57026;DHT22;43961;52.940;6.834;2023-04-25T02:08:23;6.30;99.90
57026;DHT22;43961;52.940;6.834;2023-04-25T02:10:48;6.20;99.90
57026;DHT22;43961;52.940;6.834;2023-04-25T02:13:14;6.20;99.90
57026;DHT22;43961;52.940;6.834;2023-04-25T02:15:40;6.20;99.90
57026;DHT22;43961;52.940;6.834;2023-04-25T02:18:06;6.20;99.90
57026;DHT22;43961;52.940;6.834;2023-04-25T02:20:32;6.20;99.90
57026;DHT22;43961;52.940;6.834;2023-04-25T02:22:58;6.20;99.90
57026;DHT22;43961;52.940;6.834;2023-04-25T02:25:24;6.20;99.90
57026;DHT22;43961;52.940;6.834;2023-04-25T02:27:50;6.20;99.90
57026;DHT22;43961;52.940;6.834;2023-04-25T02:30:16;6.20;99.90
57026;DHT22;43961;52.940;6.834;2023-04-25T02:32:42;6.20;99.90
57026;DHT22;43961;52.940;6.834;2023-04-25T02:35:08;6.20;99.90
57026;DHT22;43961;52.940;6.834;2023-04-25T02:37:38;6.10;99.90
57026;DHT22;43961;52.940;6.834;2023-04-25T02:40:04;6.20;99.90
57026;DHT22;43961;52.940;6.834;2023-04-25T02:42:30;6.10;99.90
57026;DHT22;43961;52.940;6.834;2023-04-25T02:44:56;6.10;99.90
57026;DHT22;43961;52.940;6.834;2023-04-25T02:47:22;6.10;99.90
57026;DHT22;43961;52.940;6.834;2023-04-25T02:49:49;6.10;99.90
57026;DHT22;43961;52.940;6.834;2023-04-25T02:52:14;6.10;99.90
57026;DHT22;43961;52.940;6.834;2023-04-25T02:54:40;6.10;99.90
57026;DHT22;43961;52.940;6.834;2023-04-25T02:57:07;6.10;99.90
57026;DHT22;43961;52.940;6.834;2023-04-25T02:59:33;6.10;99.90
57026;DHT22;43961;52.940;6.834;2023-04-25T03:01:58;6.10;99.90
57026;DHT22;43961;52.940;6.834;2023-04-25T03:04:24;6.10;99.90
57026;DHT22;43961;52.940;6.834;2023-04-25T03:06:50;6.10;99.90
57026;DHT22;43961;52.940;6.834;2023-04-25T03:09:16;6.00;99.90
57026;DHT22;43961;52.940;6.834;2023-04-25T03:11:44;6.10;99.90
57026;DHT22;43961;52.940;6.834;2023-04-25T03:14:10;6.00;99.90
57026;DHT22;43961;52.940;6.834;2023-04-25T03:16:36;6.00;99.90
57026;DHT22;43961;52.940;6.834;2023-04-25T03:19:02;6.00;99.90
57026;DHT22;43961;52.940;6.834;2023-04-25T03:21:28;6.00;99.90
57026;DHT22;43961;52.940;6.834;2023-04-25T03:23:54;6.00;99.90
57026;DHT22;43961;52.940;6.834;2023-04-25T03:26:19;6.00;99.90
57026;DHT22;43961;52.940;6.834;2023-04-25T03:28:46;6.00;99.90
57026;DHT22;43961;52.940;6.834;2023-04-25T03:31:11;6.00;99.90
57026;DHT22;43961;52.940;6.834;2023-04-25T03:33:37;6.00;99.90
57026;DHT22;43961;52.940;6.834;2023-04-25T03:36:03;6.00;99.90
57026;DHT22;43961;52.940;6.834;2023-04-25T03:38:29;6.00;99.90
57026;DHT22;43961;52.940;6.834;2023-04-25T03:40:54;5.90;99.90
57026;DHT22;43961;52.940;6.834;2023-04-25T03:43:22;6.00;99.90
57026;DHT22;43961;52.940;6.834;2023-04-25T03:45:48;6.00;99.90
57026;DHT22;43961;52.940;6.834;2023-04-25T03:48:14;5.90;99.90
57026;DHT22;43961;52.940;6.834;2023-04-25T03:50:40;6.00;99.90
57026;DHT22;43961;52.940;6.834;2023-04-25T03:53:05;5.90;99.90
57026;DHT22;43961;52.940;6.834;2023-04-25T03:55:31;5.90;99.90
57026;DHT22;43961;52.940;6.834;2023-04-25T03:57:58;5.90;99.90
57026;DHT22;43961;52.940;6.834;2023-04-25T04:00:24;5.90;99.90
57026;DHT22;43961;52.940;6.834;2023-04-25T04:02:50;6.00;99.90
57026;DHT22;43961;52.940;6.834;2023-04-25T04:05:16;5.90;99.90
57026;DHT22;43961;52.940;6.834;2023-04-25T04:07:42;5.90;99.90
57026;DHT22;43961;52.940;6.834;2023-04-25T04:10:09;5.90;99.90
57026;DHT22;43961;52.940;6.834;2023-04-25T04:12:36;5.90;99.90
57026;DHT22;43961;52.940;6.834;2023-04-25T04:15:03;5.90;99.90
57026;DHT22;43961;52.940;6.834;2023-04-25T04:17:29;5.90;99.90
57026;DHT22;43961;52.940;6.834;2023-04-25T04:19:55;5.90;99.90
57026;DHT22;43961;52.940;6.834;2023-04-25T04:22:22;5.90;99.90
57026;DHT22;43961;52.940;6.834;2023-04-25T04:24:48;5.90;99.90
57026;DHT22;43961;52.940;6.834;2023-04-25T04:27:19;5.90;99.90
57026;DHT22;43961;52.940;6.834;2023-04-25T04:29:45;5.90;99.90
57026;DHT22;43961;52.940;6.834;2023-04-25T04:32:12;5.90;99.90
57026;DHT22;43961;52.940;6.834;2023-04-25T04:34:38;5.90;99.90
57026;DHT22;43961;52.940;6.834;2023-04-25T04:37:05;5.90;99.90
57026;DHT22;43961;52.940;6.834;2023-04-25T04:39:31;5.90;99.90
57026;DHT22;43961;52.940;6.834;2023-04-25T04:41:56;6.00;99.90
57026;DHT22;43961;52.940;6.834;2023-04-25T04:44:22;6.00;99.90
57026;DHT22;43961;52.940;6.834;2023-04-25T04:46:48;6.00;99.90
57026;DHT22;43961;52.940;6.834;2023-04-25T04:49:13;6.00;99.90
57026;DHT22;43961;52.940;6.834;2023-04-25T04:51:39;6.00;99.90
57026;DHT22;43961;52.940;6.834;2023-04-25T04:54:06;6.00;99.90
57026;DHT22;43961;52.940;6.834;2023-04-25T04:56:32;6.00;99.90
57026;DHT22;43961;52.940;6.834;2023-04-25T04:58:58;5.90;99.90
57026;DHT22;43961;52.940;6.834;2023-04-25T05:01:26;6.00;99.90
57026;DHT22;43961;52.940;6.834;2023-04-25T05:03:52;6.30;99.90
57026;DHT22;43961;52.940;6.834;2023-04-25T05:06:20;6.90;99.90
57026;DHT22;43961;52.940;6.834;2023-04-25T05:08:46;7.50;99.90
57026;DHT22;43961;52.940;6.834;2023-04-25T05:11:12;8.10;99.90
57026;DHT22;43961;52.940;6.834;2023-04-25T05:13:37;8.70;99.90
57026;DHT22;43961;52.940;6.834;2023-04-25T05:16:03;9.20;99.90
57026;DHT22;43961;52.940;6.834;2023-04-25T05:18:29;9.70;99.90
57026;DHT22;43961;52.940;6.834;2023-04-25T05:20:56;10.20;99.90
57026;DHT22;43961;52.940;6.834;2023-04-25T05:23:22;10.70;99.90
57026;DHT22;43961;52.940;6.834;2023-04-25T05:25:49;11.20;99.90
57026;DHT22;43961;52.940;6.834;2023-04-25T05:28:15;11.60;99.90
57026;DHT22;43961;52.940;6.834;2023-04-25T05:30:41;11.80;99.90
57026;DHT22;43961;52.940;6.834;2023-04-25T05:33:07;12.00;99.90
57026;DHT22;43961;52.940;6.834;2023-04-25T05:35:33;12.20;99.90
57026;DHT22;43961;52.940;6.834;2023-04-25T05:37:58;12.30;99.90
57026;DHT22;43961;52.940;6.834;2023-04-25T05:40:24;12.40;99.90
57026;DHT22;43961;52.940;6.834;2023-04-25T05:42:50;11.80;99.90
57026;DHT22;43961;52.940;6.834;2023-04-25T05:45:15;11.40;99.90
57026;DHT22;43961;52.940;6.834;2023-04-25T05:47:43;10.80;99.90
57026;DHT22;43961;52.940;6.834;2023-04-25T05:50:08;10.10;99.90
57026;DHT22;43961;52.940;6.834;2023-04-25T05:52:34;9.50;99.90
57026;DHT22;43961;52.940;6.834;2023-04-25T05:55:00;9.00;99.90
57026;DHT22;43961;52.940;6.834;2023-04-25T05:57:26;8.60;99.90
57026;DHT22;43961;52.940;6.834;2023-04-25T05:59:52;8.30;99.90
57026;DHT22;43961;52.940;6.834;2023-04-25T06:02:19;8.00;99.90
57026;DHT22;43961;52.940;6.834;2023-04-25T06:04:46;7.80;99.90
57026;DHT22;43961;52.940;6.834;2023-04-25T06:07:12;7.70;99.90
57026;DHT22;43961;52.940;6.834;2023-04-25T06:09:38;7.60;99.90
57026;DHT22;43961;52.940;6.834;2023-04-25T06:12:06;7.90;99.90
57026;DHT22;43961;52.940;6.834;2023-04-25T06:14:35;8.10;99.90
57026;DHT22;43961;52.940;6.834;2023-04-25T06:17:01;8.30;99.90
57026;DHT22;43961;52.940;6.834;2023-04-25T06:19:32;8.30;99.90
57026;DHT22;43961;52.940;6.834;2023-04-25T06:21:58;8.50;99.90
57026;DHT22;43961;52.940;6.834;2023-04-25T06:24:24;8.60;99.90
57026;DHT22;43961;52.940;6.834;2023-04-25T06:26:49;8.80;99.90
57026;DHT22;43961;52.940;6.834;2023-04-25T06:29:17;8.80;99.90
57026;DHT22;43961;52.940;6.834;2023-04-25T06:31:43;8.70;99.90
57026;DHT22;43961;52.940;6.834;2023-04-25T06:34:08;8.70;99.90
57026;DHT22;43961;52.940;6.834;2023-04-25T06:36:34;8.70;99.90
57026;DHT22;43961;52.940;6.834;2023-04-25T06:39:00;8.70;99.90
57026;DHT22;43961;52.940;6.834;2023-04-25T06:41:25;8.80;99.90
57026;DHT22;43961;52.940;6.834;2023-04-25T06:43:52;8.80;99.90
57026;DHT22;43961;52.940;6.834;2023-04-25T06:46:18;8.80;99.90
57026;DHT22;43961;52.940;6.834;2023-04-25T06:48:44;8.80;99.90
57026;DHT22;43961;52.940;6.834;2023-04-25T06:51:09;8.90;99.90
57026;DHT22;43961;52.940;6.834;2023-04-25T06:53:35;9.00;99.90
57026;DHT22;43961;52.940;6.834;2023-04-25T06:56:03;9.20;99.90
57026;DHT22;43961;52.940;6.834;2023-04-25T06:58:28;9.20;99.90
57026;DHT22;43961;52.940;6.834;2023-04-25T07:00:54;9.30;99.90
57026;DHT22;43961;52.940;6.834;2023-04-25T07:03:20;9.40;99.90
57026;DHT22;43961;52.940;6.834;2023-04-25T07:05:46;9.60;99.90
57026;DHT22;43961;52.940;6.834;2023-04-25T07:08:11;9.80;99.90
57026;DHT22;43961;52.940;6.834;2023-04-25T07:10:37;10.00;99.90
57026;DHT22;43961;52.940;6.834;2023-04-25T07:13:03;10.20;99.90
57026;DHT22;43961;52.940;6.834;2023-04-25T07:15:29;10.40;99.90
57026;DHT22;43961;52.940;6.834;2023-04-25T07:17:55;10.60;99.90
57026;DHT22;43961;52.940;6.834;2023-04-25T07:20:20;10.80;99.90
57026;DHT22;43961;52.940;6.834;2023-04-25T07:22:46;11.00;99.90
57026;DHT22;43961;52.940;6.834;2023-04-25T07:25:12;11.00;99.90
57026;DHT22;43961;52.940;6.834;2023-04-25T07:27:38;11.00;99.90
57026;DHT22;43961;52.940;6.834;2023-04-25T07:30:05;11.10;99.90
57026;DHT22;43961;52.940;6.834;2023-04-25T07:32:31;10.90;99.90
57026;DHT22;43961;52.940;6.834;2023-04-25T07:34:57;10.80;99.90
57026;DHT22;43961;52.940;6.834;2023-04-25T07:37:23;10.60;99.90
57026;DHT22;43961;52.940;6.834;2023-04-25T07:39:48;10.70;99.90
57026;DHT22;43961;52.940;6.834;2023-04-25T07:42:14;10.70;99.90
57026;DHT22;43961;52.940;6.834;2023-04-25T07:44:40;10.70;99.90
57026;DHT22;43961;52.940;6.834;2023-04-25T07:47:06;10.50;99.90
57026;DHT22;43961;52.940;6.834;2023-04-25T07:49:37;10.20;99.90
57026;DHT22;43961;52.940;6.834;2023-04-25T07:52:04;10.00;99.90
57026;DHT22;43961;52.940;6.834;2023-04-25T07:54:30;9.80;99.90
57026;DHT22;43961;52.940;6.834;2023-04-25T07:56:57;9.70;99.90
57026;DHT22;43961;52.940;6.834;2023-04-25T07:59:23;9.70;99.90
57026;DHT22;43961;52.940;6.834;2023-04-25T08:01:49;9.90;99.90
57026;DHT22;43961;52.940;6.834;2023-04-25T08:04:14;10.20;99.90
57026;DHT22;43961;52.940;6.834;2023-04-25T08:06:40;10.20;99.90
57026;DHT22;43961;52.940;6.834;2023-04-25T08:09:06;10.20;99.90
57026;DHT22;43961;52.940;6.834;2023-04-25T08:11:32;10.30;99.90
57026;DHT22;43961;52.940;6.834;2023-04-25T08:13:58;10.30;99.90
57026;DHT22;43961;52.940;6.834;2023-04-25T08:16:23;10.50;99.90
57026;DHT22;43961;52.940;6.834;2023-04-25T08:18:50;10.50;99.90
57026;DHT22;43961;52.940;6.834;2023-04-25T08:21:15;10.60;99.90
57026;DHT22;43961;52.940;6.834;2023-04-25T08:23:41;10.60;99.90
57026;DHT22;43961;52.940;6.834;2023-04-25T08:26:09;10.70;99.90
57026;DHT22;43961;52.940;6.834;2023-04-25T08:28:34;10.70;99.90
57026;DHT22;43961;52.940;6.834;2023-04-25T08:31:00;10.70;99.90
57026;DHT22;43961;52.940;6.834;2023-04-25T08:33:26;10.60;99.90
57026;DHT22;43961;52.940;6.834;2023-04-25T08:35:51;10.60;99.90
57026;DHT22;43961;52.940;6.834;2023-04-25T08:38:18;10.70;99.90
57026;DHT22;43961;52.940;6.834;2023-04-25T08:40:44;10.70;99.90
57026;DHT22;43961;52.940;6.834;2023-04-25T08:43:13;10.60;99.90
57026;DHT22;43961;52.940;6.834;2023-04-25T08:45:41;10.50;99.90
57026;DHT22;43961;52.940;6.834;2023-04-25T08:48:12;10.50;99.90
57026;DHT22;43961;52.940;6.834;2023-04-25T08:50:53;10.50;99.90
57026;DHT22;43961;52.940;6.834;2023-04-25T08:53:27;10.80;99.90
57026;DHT22;43961;52.940;6.834;2023-04-25T08:55:55;10.90;99.90
57026;DHT22;43961;52.940;6.834;2023-04-25T08:58:21;10.80;99.90
57026;DHT22;43961;52.940;6.834;2023-04-25T09:00:49;10.80;99.80
57026;DHT22;43961;52.940;6.834;2023-04-25T09:03:16;11.00;99.90
57026;DHT22;43961;52.940;6.834;2023-04-25T09:05:42;11.10;99.90
57026;DHT22;43961;52.940;6.834;2023-04-25T09:08:08;11.20;98.60
57026;DHT22;43961;52.940;6.834;2023-04-25T09:10:34;11.00;98.90
57026;DHT22;43961;52.940;6.834;2023-04-25T09:13:12;10.70;99.90
57026;DHT22;43961;52.940;6.834;2023-04-25T09:15:51;10.30;99.90
57026;DHT22;43961;52.940;6.834;2023-04-25T09:18:29;10.00;99.90
57026;DHT22;43961;52.940;6.834;2023-04-25T09:20:58;9.90;99.90
57026;DHT22;43961;52.940;6.834;2023-04-25T09:23:29;9.80;99.90
57026;DHT22;43961;52.940;6.834;2023-04-25T09:25:56;9.70;99.90
57026;DHT22;43961;52.940;6.834;2023-04-25T09:28:26;9.80;99.90
57026;DHT22;43961;52.940;6.834;2023-04-25T09:30:56;9.90;99.90
57026;DHT22;43961;52.940;6.834;2023-04-25T09:33:30;10.10;99.90
57026;DHT22;43961;52.940;6.834;2023-04-25T09:36:07;10.30;99.90
57026;DHT22;43961;52.940;6.834;2023-04-25T09:38:41;10.40;99.90
57026;DHT22;43961;52.940;6.834;2023-04-25T09:41:08;10.50;99.90
57026;DHT22;43961;52.940;6.834;2023-04-25T09:43:34;10.60;99.90
57026;DHT22;43961;52.940;6.834;2023-04-25T09:46:00;10.60;99.90
57026;DHT22;43961;52.940;6.834;2023-04-25T09:48:27;10.60;99.90
57026;DHT22;43961;52.940;6.834;2023-04-25T09:51:11;10.80;99.90
57026;DHT22;43961;52.940;6.834;2023-04-25T09:53:40;10.90;99.90
57026;DHT22;43961;52.940;6.834;2023-04-25T09:56:08;11.10;99.90
57026;DHT22;43961;52.940;6.834;2023-04-25T09:58:35;11.40;99.90
57026;DHT22;43961;52.940;6.834;2023-04-25T10:01:03;11.60;99.90
57026;DHT22;43961;52.940;6.834;2023-04-25T10:03:34;11.70;99.90
57026;DHT22;43961;52.940;6.834;2023-04-25T10:06:02;12.00;99.90
57026;DHT22;43961;52.940;6.834;2023-04-25T10:08:33;12.30;99.90
57026;DHT22;43961;52.940;6.834;2023-04-25T10:11:07;12.60;99.90
57026;DHT22;43961;52.940;6.834;2023-04-25T10:13:34;12.80;99.90
57026;DHT22;43961;52.940;6.834;2023-04-25T10:16:02;12.90;97.60
57026;DHT22;43961;52.940;6.834;2023-04-25T10:18:29;13.00;97.50
57026;DHT22;43961;52.940;6.834;2023-04-25T10:20:58;12.90;95.50
57026;DHT22;43961;52.940;6.834;2023-04-25T10:23:24;12.50;94.70
57026;DHT22;43961;52.940;6.834;2023-04-25T10:25:51;11.90;97.30
57026;DHT22;43961;52.940;6.834;2023-04-25T10:28:17;11.30;99.90
57026;DHT22;43961;52.940;6.834;2023-04-25T10:31:10;10.90;99.90
57026;DHT22;43961;52.940;6.834;2023-04-25T10:33:37;10.70;99.90
57026;DHT22;43961;52.940;6.834;2023-04-25T10:36:13;10.50;99.90
57026;DHT22;43961;52.940;6.834;2023-04-25T10:38:39;10.50;99.90
57026;DHT22;43961;52.940;6.834;2023-04-25T10:41:07;10.50;99.90
57026;DHT22;43961;52.940;6.834;2023-04-25T10:43:42;10.50;99.90
57026;DHT22;43961;52.940;6.834;2023-04-25T10:46:21;10.50;99.90
57026;DHT22;43961;52.940;6.834;2023-04-25T10:48:52;10.60;99.90
57026;DHT22;43961;52.940;6.834;2023-04-25T10:51:26;10.80;99.90
57026;DHT22;43961;52.940;6.834;2023-04-25T10:54:03;11.00;99.90
57026;DHT22;43961;52.940;6.834;2023-04-25T10:56:35;11.30;99.90
57026;DHT22;43961;52.940;6.834;2023-04-25T10:59:13;11.60;99.90
57026;DHT22;43961;52.940;6.834;2023-04-25T11:01:40;11.90;99.90
57026;DHT22;43961;52.940;6.834;2023-04-25T11:04:18;12.30;99.90
57026;DHT22;43961;52.940;6.834;2023-04-25T11:09:28;12.90;99.90
57026;DHT22;43961;52.940;6.834;2023-04-25T11:11:57;12.90;99.90
57026;DHT22;43961;52.940;6.834;2023-04-25T11:14:24;12.60;99.90
57026;DHT22;43961;52.940;6.834;2023-04-25T11:16:56;12.20;99.90
57026;DHT22;43961;52.940;6.834;2023-04-25T11:19:23;11.90;99.90
57026;DHT22;43961;52.940;6.834;2023-04-25T11:21:49;11.90;99.90
57026;DHT22;43961;52.940;6.834;2023-04-25T11:24:18;11.90;99.90
57026;DHT22;43961;52.940;6.834;2023-04-25T11:26:47;11.90;99.90
57026;DHT22;43961;52.940;6.834;2023-04-25T11:29:13;11.90;99.90
57026;DHT22;43961;52.940;6.834;2023-04-25T11:31:43;11.50;99.90
57026;DHT22;43961;52.940;6.834;2023-04-25T11:34:18;11.40;99.90
57026;DHT22;43961;52.940;6.834;2023-04-25T11:36:45;11.40;99.90
57026;DHT22;43961;52.940;6.834;2023-04-25T11:39:11;11.60;99.90
57026;DHT22;43961;52.940;6.834;2023-04-25T11:41:38;11.70;99.90
57026;DHT22;43961;52.940;6.834;2023-04-25T11:44:04;11.60;99.90
57026;DHT22;43961;52.940;6.834;2023-04-25T11:46:30;11.20;99.90
57026;DHT22;43961;52.940;6.834;2023-04-25T11:48:57;10.80;99.90
57026;DHT22;43961;52.940;6.834;2023-04-25T11:51:23;10.40;99.90
57026;DHT22;43961;52.940;6.834;2023-04-25T11:53:48;10.00;99.90
57026;DHT22;43961;52.940;6.834;2023-04-25T11:56:14;9.60;99.90
57026;DHT22;43961;52.940;6.834;2023-04-25T11:58:59;9.30;99.90
57026;DHT22;43961;52.940;6.834;2023-04-25T12:01:31;9.40;99.90
57026;DHT22;43961;52.940;6.834;2023-04-25T12:03:58;9.50;99.90
57026;DHT22;43961;52.940;6.834;2023-04-25T12:06:29;9.80;99.90
57026;DHT22;43961;52.940;6.834;2023-04-25T12:09:02;10.10;99.90
57026;DHT22;43961;52.940;6.834;2023-04-25T12:11:30;10.60;99.90
57026;DHT22;43961;52.940;6.834;2023-04-25T12:14:02;11.00;99.90
57026;DHT22;43961;52.940;6.834;2023-04-25T12:16:28;11.30;99.90
57026;DHT22;43961;52.940;6.834;2023-04-25T12:18:53;11.50;99.90
57026;DHT22;43961;52.940;6.834;2023-04-25T12:21:21;11.80;99.90
57026;DHT22;43961;52.940;6.834;2023-04-25T12:23:47;12.10;99.90
57026;DHT22;43961;52.940;6.834;2023-04-25T12:26:12;12.10;99.90
57026;DHT22;43961;52.940;6.834;2023-04-25T12:28:38;12.00;99.90
57026;DHT22;43961;52.940;6.834;2023-04-25T12:31:05;11.80;99.90
57026;DHT22;43961;52.940;6.834;2023-04-25T12:33:35;11.60;99.90
57026;DHT22;43961;52.940;6.834;2023-04-25T12:36:05;11.60;99.90
57026;DHT22;43961;52.940;6.834;2023-04-25T12:38:41;11.70;99.90
57026;DHT22;43961;52.940;6.834;2023-04-25T12:41:08;11.60;99.90
57026;DHT22;43961;52.940;6.834;2023-04-25T12:43:34;11.60;99.90
57026;DHT22;43961;52.940;6.834;2023-04-25T12:46:00;11.70;99.90
57026;DHT22;43961;52.940;6.834;2023-04-25T12:48:26;11.80;98.80
57026;DHT22;43961;52.940;6.834;2023-04-25T12:50:52;12.00;97.10
57026;DHT22;43961;52.940;6.834;2023-04-25T12:53:22;12.20;93.60
57026;DHT22;43961;52.940;6.834;2023-04-25T12:55:48;12.30;93.90
57026;DHT22;43961;52.940;6.834;2023-04-25T12:58:17;12.20;94.70
57026;DHT22;43961;52.940;6.834;2023-04-25T13:00:43;12.10;94.40
57026;DHT22;43961;52.940;6.834;2023-04-25T13:03:09;12.00;93.80
57026;DHT22;43961;52.940;6.834;2023-04-25T13:05:38;11.80;94.20
57026;DHT22;43961;52.940;6.834;2023-04-25T13:08:03;11.70;94.90
57026;DHT22;43961;52.940;6.834;2023-04-25T13:10:29;11.60;97.70
57026;DHT22;43961;52.940;6.834;2023-04-25T13:12:55;11.70;98.50
57026;DHT22;43961;52.940;6.834;2023-04-25T13:15:21;11.90;99.90
57026;DHT22;43961;52.940;6.834;2023-04-25T13:17:47;12.20;99.70
57026;DHT22;43961;52.940;6.834;2023-04-25T13:20:13;12.20;98.50
57026;DHT22;43961;52.940;6.834;2023-04-25T13:22:40;12.00;95.70
57026;DHT22;43961;52.940;6.834;2023-04-25T13:25:07;11.80;95.70
57026;DHT22;43961;52.940;6.834;2023-04-25T13:27:34;11.50;95.60
57026;DHT22;43961;52.940;6.834;2023-04-25T13:30:02;11.20;96.80
57026;DHT22;43961;52.940;6.834;2023-04-25T13:32:33;10.90;98.60
57026;DHT22;43961;52.940;6.834;2023-04-25T13:34:59;10.80;99.90
57026;DHT22;43961;52.940;6.834;2023-04-25T13:37:26;10.90;99.90
57026;DHT22;43961;52.940;6.834;2023-04-25T13:39:51;11.00;99.90
57026;DHT22;43961;52.940;6.834;2023-04-25T13:42:17;11.10;99.90
57026;DHT22;43961;52.940;6.834;2023-04-25T13:44:43;11.20;99.90
57026;DHT22;43961;52.940;6.834;2023-04-25T13:47:08;11.50;99.90
57026;DHT22;43961;52.940;6.834;2023-04-25T13:49:34;11.40;99.90
57026;DHT22;43961;52.940;6.834;2023-04-25T13:52:00;11.40;99.50
57026;DHT22;43961;52.940;6.834;2023-04-25T13:54:25;11.30;99.20
57026;DHT22;43961;52.940;6.834;2023-04-25T13:56:51;11.30;97.60
57026;DHT22;43961;52.940;6.834;2023-04-25T13:59:18;11.20;96.90
57026;DHT22;43961;52.940;6.834;2023-04-25T14:01:43;11.10;95.60
57026;DHT22;43961;52.940;6.834;2023-04-25T14:04:10;11.00;95.80
57026;DHT22;43961;52.940;6.834;2023-04-25T14:06:36;11.00;96.60
57026;DHT22;43961;52.940;6.834;2023-04-25T14:09:04;11.00;97.20
57026;DHT22;43961;52.940;6.834;2023-04-25T14:11:30;11.10;97.60
57026;DHT22;43961;52.940;6.834;2023-04-25T14:13:55;11.20;98.70
57026;DHT22;43961;52.940;6.834;2023-04-25T14:16:21;11.20;97.80
57026;DHT22;43961;52.940;6.834;2023-04-25T14:18:48;11.20;98.20
57026;DHT22;43961;52.940;6.834;2023-04-25T14:21:13;11.10;97.50
57026;DHT22;43961;52.940;6.834;2023-04-25T14:23:39;11.00;96.20
57026;DHT22;43961;52.940;6.834;2023-04-25T14:26:05;10.80;95.30
57026;DHT22;43961;52.940;6.834;2023-04-25T14:28:32;10.60;96.20
57026;DHT22;43961;52.940;6.834;2023-04-25T14:30:58;10.40;96.70
57026;DHT22;43961;52.940;6.834;2023-04-25T14:33:23;10.20;97.00
57026;DHT22;43961;52.940;6.834;2023-04-25T14:35:49;9.90;98.70
57026;DHT22;43961;52.940;6.834;2023-04-25T14:38:15;9.80;99.90
57026;DHT22;43961;52.940;6.834;2023-04-25T14:40:40;9.70;99.90
57026;DHT22;43961;52.940;6.834;2023-04-25T14:43:06;9.60;99.90
57026;DHT22;43961;52.940;6.834;2023-04-25T14:45:33;9.60;99.90
57026;DHT22;43961;52.940;6.834;2023-04-25T14:47:59;9.60;99.90
57026;DHT22;43961;52.940;6.834;2023-04-25T14:50:25;9.70;99.90
57026;DHT22;43961;52.940;6.834;2023-04-25T14:52:50;9.80;99.90
57026;DHT22;43961;52.940;6.834;2023-04-25T14:55:24;9.90;99.90
57026;DHT22;43961;52.940;6.834;2023-04-25T14:57:50;10.10;99.90
57026;DHT22;43961;52.940;6.834;2023-04-25T15:00:17;10.10;99.90
57026;DHT22;43961;52.940;6.834;2023-04-25T15:02:43;10.30;99.90
57026;DHT22;43961;52.940;6.834;2023-04-25T15:05:09;10.40;99.90
57026;DHT22;43961;52.940;6.834;2023-04-25T15:07:35;10.50;99.90
57026;DHT22;43961;52.940;6.834;2023-04-25T15:10:01;10.60;99.90
57026;DHT22;43961;52.940;6.834;2023-04-25T15:12:26;10.60;99.90
57026;DHT22;43961;52.940;6.834;2023-04-25T15:14:54;10.60;98.70
57026;DHT22;43961;52.940;6.834;2023-04-25T15:17:19;10.40;96.40
57026;DHT22;43961;52.940;6.834;2023-04-25T15:19:45;10.30;95.50
57026;DHT22;43961;52.940;6.834;2023-04-25T15:22:11;10.20;95.40
57026;DHT22;43961;52.940;6.834;2023-04-25T15:24:36;10.20;96.30
57026;DHT22;43961;52.940;6.834;2023-04-25T15:27:02;10.20;96.30
57026;DHT22;43961;52.940;6.834;2023-04-25T15:29:30;10.20;96.00
57026;DHT22;43961;52.940;6.834;2023-04-25T15:31:56;10.20;96.50
57026;DHT22;43961;52.940;6.834;2023-04-25T15:34:22;10.30;96.60
57026;DHT22;43961;52.940;6.834;2023-04-25T15:36:49;10.30;97.60
57026;DHT22;43961;52.940;6.834;2023-04-25T15:39:15;10.40;94.80